createdAt,value
2018-07-20T00:00:43.955Z,18.96
2018-07-20T00:03:12.445Z,18.88
2018-07-20T00:05:40.450Z,18.82
2018-07-20T00:08:08.612Z,18.80
2018-07-20T00:10:36.972Z,18.82
2018-07-20T00:13:05.084Z,18.84
2018-07-20T00:15:33.161Z,18.76
2018-07-20T00:18:01.387Z,18.64
2018-07-20T00:20:29.523Z,18.79
2018-07-20T00:22:57.811Z,18.79
2018-07-20T00:25:26.304Z,18.77
2018-07-20T00:27:54.340Z,18.75
2018-07-20T00:30:22.373Z,18.75
2018-07-20T00:32:50.428Z,18.74
2018-07-20T00:35:19.389Z,18.72
2018-07-20T00:37:47.421Z,18.69
2018-07-20T00:40:15.462Z,18.58
2018-07-20T00:42:43.871Z,18.64
2018-07-20T00:45:12.035Z,18.62
2018-07-20T00:47:40.542Z,18.59
2018-07-20T00:50:09.006Z,18.56
2018-07-20T00:52:37.291Z,18.53
2018-07-20T00:55:05.906Z,18.50
2018-07-20T00:57:34.332Z,18.48
2018-07-20T01:00:02.860Z,18.46
2018-07-20T01:02:31.531Z,18.43
2018-07-20T01:05:00.031Z,18.41
2018-07-20T01:07:28.298Z,18.38
2018-07-20T01:09:56.623Z,18.35
2018-07-20T01:12:25.206Z,18.33
2018-07-20T01:14:54.128Z,18.32
2018-07-20T01:17:22.571Z,18.31
2018-07-20T01:19:51.071Z,18.28
2018-07-20T01:22:19.507Z,18.25
2018-07-20T01:24:47.665Z,18.22
2018-07-20T01:27:16.651Z,17.91
2018-07-20T01:29:44.907Z,17.96
2018-07-20T01:32:12.957Z,17.95
2018-07-20T01:34:41.980Z,17.92
2018-07-20T01:37:10.352Z,18.06
2018-07-20T01:39:38.745Z,17.94
2018-07-20T01:42:07.869Z,17.96
2018-07-20T01:44:36.087Z,17.83
2018-07-20T01:47:04.681Z,17.53
2018-07-20T01:49:33.082Z,17.82
2018-07-20T01:52:01.753Z,17.81
2018-07-20T01:54:29.807Z,17.78
2018-07-20T01:56:58.688Z,17.74
2018-07-20T01:59:27.901Z,17.72
2018-07-20T02:01:55.916Z,17.68
2018-07-20T02:04:24.637Z,17.66
2018-07-20T02:06:52.696Z,17.61
2018-07-20T02:09:20.785Z,17.57
2018-07-20T02:11:49.358Z,17.53
2018-07-20T02:14:17.862Z,17.48
2018-07-20T02:16:46.268Z,17.32
2018-07-20T02:19:14.783Z,17.42
2018-07-20T02:21:42.921Z,17.40
2018-07-20T02:24:11.256Z,17.39
2018-07-20T02:26:39.620Z,17.30
2018-07-20T02:29:08.048Z,17.37
2018-07-20T02:31:36.387Z,17.27
2018-07-20T02:34:04.887Z,17.32
2018-07-20T02:36:33.646Z,17.30
2018-07-20T02:39:02.460Z,17.28
2018-07-20T02:41:30.671Z,17.27
2018-07-20T02:43:59.196Z,17.14
2018-07-20T02:46:27.435Z,17.22
2018-07-20T02:48:55.965Z,17.20
2018-07-20T02:51:24.831Z,17.18
2018-07-20T02:53:54.392Z,17.17
2018-07-20T02:56:23.668Z,17.13
2018-07-20T02:58:53.372Z,17.10
2018-07-20T03:01:21.748Z,17.06
2018-07-20T03:03:49.877Z,16.71
2018-07-20T03:06:17.899Z,17.02
2018-07-20T03:08:45.912Z,17.00
2018-07-20T03:11:14.566Z,16.98
2018-07-20T03:13:42.888Z,16.96
2018-07-20T03:16:11.240Z,16.94
2018-07-20T03:18:39.608Z,16.93
2018-07-20T03:21:08.627Z,16.81
2018-07-20T03:23:36.828Z,16.88
2018-07-20T03:26:05.483Z,16.85
2018-07-20T03:28:34.503Z,16.66
2018-07-20T03:31:02.873Z,16.80
2018-07-20T03:33:31.024Z,16.77
2018-07-20T03:35:59.386Z,16.72
2018-07-20T03:38:27.832Z,16.69
2018-07-20T03:40:56.084Z,16.65
2018-07-20T03:43:24.432Z,16.63
2018-07-20T03:45:52.798Z,16.59
2018-07-20T03:48:20.814Z,16.60
2018-07-20T03:50:49.129Z,16.59
2018-07-20T03:53:17.652Z,16.56
2018-07-20T03:55:46.064Z,16.53
2018-07-20T03:58:14.311Z,16.54
2018-07-20T04:00:42.781Z,16.55
2018-07-20T04:03:10.802Z,16.55
2018-07-20T04:05:39.846Z,16.55
2018-07-20T04:08:08.097Z,16.53
2018-07-20T04:10:37.988Z,16.51
2018-07-20T04:13:06.954Z,16.47
2018-07-20T04:15:37.765Z,16.43
2018-07-20T04:18:06.517Z,16.42
2018-07-20T04:20:35.488Z,16.34
2018-07-20T04:23:07.088Z,16.32
2018-07-20T04:25:36.180Z,16.44
2018-07-20T04:28:05.232Z,16.45
2018-07-20T04:30:33.891Z,16.45
2018-07-20T04:33:02.328Z,16.47
2018-07-20T04:35:31.302Z,16.47
2018-07-20T04:37:59.657Z,16.48
2018-07-20T04:40:28.088Z,16.53
2018-07-20T04:42:56.419Z,16.55
2018-07-20T04:45:24.857Z,16.55
2018-07-20T04:47:53.709Z,16.56
2018-07-20T04:50:22.294Z,16.60
2018-07-20T04:52:50.643Z,16.45
2018-07-20T04:55:19.410Z,16.58
2018-07-20T04:57:48.144Z,16.74
2018-07-20T05:00:16.487Z,16.80
2018-07-20T05:02:45.200Z,16.76
2018-07-20T05:05:13.740Z,16.91
2018-07-20T05:07:42.420Z,16.95
2018-07-20T05:10:11.056Z,16.96
2018-07-20T05:12:39.719Z,16.81
2018-07-20T05:15:08.120Z,16.95
2018-07-20T05:17:36.760Z,17.09
2018-07-20T05:20:05.577Z,17.04
2018-07-20T05:22:33.743Z,17.17
2018-07-20T05:25:01.805Z,17.20
2018-07-20T05:27:31.340Z,17.21
2018-07-20T05:29:59.773Z,17.29
2018-07-20T05:32:28.344Z,17.36
2018-07-20T05:34:56.880Z,17.42
2018-07-20T05:37:24.947Z,17.47
2018-07-20T05:39:53.672Z,17.42
2018-07-20T05:42:22.020Z,17.58
2018-07-20T05:44:50.238Z,17.58
2018-07-20T05:47:19.073Z,17.71
2018-07-20T05:49:47.168Z,17.72
2018-07-20T05:52:15.531Z,17.80
2018-07-20T05:54:44.012Z,17.63
2018-07-20T05:57:12.420Z,17.83
2018-07-20T05:59:41.593Z,17.91
2018-07-20T06:02:09.736Z,17.88
2018-07-20T06:04:38.163Z,17.96
2018-07-20T06:07:06.598Z,18.06
2018-07-20T06:09:34.685Z,18.07
2018-07-20T06:12:03.531Z,18.18
2018-07-20T06:14:31.665Z,18.14
2018-07-20T06:16:59.727Z,18.39
2018-07-20T06:19:28.085Z,18.52
2018-07-20T06:21:56.180Z,18.52
2018-07-20T06:24:27.016Z,18.65
2018-07-20T06:26:55.146Z,18.70
2018-07-20T06:29:23.865Z,18.61
2018-07-20T06:31:53.240Z,18.51
2018-07-20T06:34:21.523Z,18.75
2018-07-20T06:36:49.916Z,18.86
2018-07-20T06:39:18.776Z,19.04
2018-07-20T06:41:47.255Z,19.08
2018-07-20T06:44:15.269Z,19.21
2018-07-20T06:46:43.837Z,19.11
2018-07-20T06:49:12.309Z,18.91
2018-07-20T06:51:41.122Z,19.42
2018-07-20T06:54:09.535Z,19.63
2018-07-20T06:56:37.650Z,19.82
2018-07-20T06:59:06.500Z,19.96
2018-07-20T07:01:35.943Z,19.88
2018-07-20T07:04:05.516Z,19.93
2018-07-20T07:06:33.832Z,20.29
2018-07-20T07:09:07.296Z,20.23
2018-07-20T07:11:39.534Z,20.26
2018-07-20T07:14:09.341Z,20.69
2018-07-20T07:16:41.477Z,20.94
2018-07-20T07:19:12.247Z,21.36
2018-07-20T07:21:41.485Z,21.76
2018-07-20T07:24:14.411Z,21.96
2018-07-20T07:26:46.389Z,22.25
2018-07-20T07:29:18.781Z,22.86
2018-07-20T07:31:47.106Z,23.06
2018-07-20T07:34:16.837Z,23.23
2018-07-20T07:36:51.244Z,23.50
2018-07-20T07:39:19.679Z,23.91
2018-07-20T07:41:48.188Z,24.02
2018-07-20T07:44:16.589Z,24.40
2018-07-20T07:46:44.757Z,24.32
2018-07-20T07:49:12.955Z,24.83
2018-07-20T07:51:42.860Z,24.92
2018-07-20T07:54:11.377Z,25.10
2018-07-20T07:56:39.941Z,25.25
2018-07-20T07:59:08.111Z,25.29
2018-07-20T08:01:36.231Z,25.37
2018-07-20T08:04:04.926Z,25.52
2018-07-20T08:06:36.598Z,25.24
2018-07-20T08:09:08.297Z,25.80
2018-07-20T08:11:38.040Z,25.86
2018-07-20T08:14:06.479Z,25.99
2018-07-20T08:16:34.883Z,26.24
2018-07-20T08:19:04.606Z,26.54
2018-07-20T08:21:33.071Z,26.69
2018-07-20T08:24:03.182Z,26.80
2018-07-20T08:26:34.765Z,27.22
2018-07-20T08:29:07.336Z,27.35
2018-07-20T08:31:35.667Z,27.59
2018-07-20T08:34:04.068Z,27.61
2018-07-20T08:36:33.126Z,27.75
2018-07-20T08:39:01.579Z,27.78
2018-07-20T08:41:31.112Z,27.52
2018-07-20T08:43:59.198Z,27.75
2018-07-20T08:46:28.404Z,27.58
2018-07-20T08:48:56.965Z,28.21
2018-07-20T08:51:26.935Z,28.46
2018-07-20T08:53:55.633Z,28.61
2018-07-20T08:56:27.121Z,28.82
2018-07-20T08:58:56.628Z,28.66
2018-07-20T09:01:28.092Z,28.56
2018-07-20T09:03:57.112Z,28.52
2018-07-20T09:06:27.399Z,28.93
2018-07-20T09:08:56.297Z,28.95
2018-07-20T09:11:28.856Z,28.93
2018-07-20T09:13:57.558Z,29.05
2018-07-20T09:16:26.994Z,29.71
2018-07-20T09:18:55.834Z,29.73
2018-07-20T09:21:26.536Z,29.89
2018-07-20T09:23:54.992Z,29.87
2018-07-20T09:26:24.994Z,29.88
2018-07-20T09:28:55.888Z,30.06
2018-07-20T09:31:25.298Z,30.26
2018-07-20T09:34:00.087Z,30.46
2018-07-20T09:36:28.975Z,30.32
2018-07-20T09:38:57.267Z,30.37
2018-07-20T09:41:25.907Z,30.47
2018-07-20T09:43:54.665Z,30.65
2018-07-20T09:46:22.993Z,30.69
2018-07-20T09:48:52.789Z,30.83
2018-07-20T09:51:21.161Z,30.85
2018-07-20T09:53:50.777Z,30.85
2018-07-20T09:56:19.712Z,30.82
2018-07-20T09:58:50.476Z,30.85
2018-07-20T10:01:19.250Z,31.03
2018-07-20T10:03:47.525Z,31.31
2018-07-20T10:06:22.218Z,31.65
2018-07-20T10:08:52.062Z,31.92
2018-07-20T10:11:23.136Z,31.37
2018-07-20T10:13:52.350Z,32.06
2018-07-20T10:16:22.135Z,31.98
2018-07-20T10:18:50.273Z,31.76
2018-07-20T10:21:18.806Z,31.81
2018-07-20T10:23:48.743Z,31.38
2018-07-20T10:26:17.097Z,31.79
2018-07-20T10:28:46.463Z,31.67
2018-07-20T10:31:14.758Z,31.58
2018-07-20T10:33:42.996Z,31.77
2018-07-20T10:36:11.162Z,31.89
2018-07-20T10:38:39.544Z,31.97
2018-07-20T10:41:08.825Z,32.00
2018-07-20T10:43:37.183Z,32.09
2018-07-20T10:46:05.417Z,32.29
2018-07-20T10:48:34.044Z,32.47
2018-07-20T10:51:02.243Z,32.58
2018-07-20T10:53:30.468Z,32.74
2018-07-20T10:55:58.869Z,32.77
2018-07-20T10:58:26.994Z,32.72
2018-07-20T11:00:55.902Z,32.82
2018-07-20T11:03:24.071Z,32.99
2018-07-20T11:05:52.761Z,33.35
2018-07-20T11:08:20.992Z,33.56
2018-07-20T11:10:49.130Z,33.38
2018-07-20T11:13:17.617Z,33.52
2018-07-20T11:15:45.922Z,33.74
2018-07-20T11:18:14.028Z,33.65
2018-07-20T11:20:42.647Z,33.42
2018-07-20T11:23:11.274Z,33.22
2018-07-20T11:25:39.307Z,33.36
2018-07-20T11:28:07.455Z,33.43
2018-07-20T11:30:35.760Z,33.52
2018-07-20T11:33:04.668Z,33.57
2018-07-20T11:35:32.767Z,33.78
2018-07-20T11:38:00.991Z,34.00
2018-07-20T11:40:29.534Z,34.00
2018-07-20T11:42:57.631Z,34.10
2018-07-20T11:45:26.384Z,34.25
2018-07-20T11:47:54.542Z,34.06
2018-07-20T11:50:22.717Z,34.06
2018-07-20T11:52:51.739Z,34.12
2018-07-20T11:55:20.254Z,34.27
2018-07-20T11:57:48.966Z,34.12
2018-07-20T12:00:19.906Z,33.85
2018-07-20T12:02:48.594Z,33.84
2018-07-20T12:05:17.078Z,33.80
2018-07-20T12:07:45.302Z,33.97
2018-07-20T12:10:13.437Z,34.08
2018-07-20T12:12:42.260Z,34.16
2018-07-20T12:15:10.636Z,34.41
2018-07-20T12:17:41.138Z,34.44
2018-07-20T12:20:09.833Z,34.57
2018-07-20T12:22:38.354Z,34.34
2018-07-20T12:25:07.227Z,33.56
2018-07-20T12:27:35.587Z,33.56
2018-07-20T12:30:05.456Z,33.51
2018-07-20T12:32:33.729Z,33.39
2018-07-20T12:35:01.870Z,33.37
2018-07-20T12:37:31.246Z,33.40
2018-07-20T12:39:59.497Z,33.58
2018-07-20T12:42:27.764Z,33.47
2018-07-20T12:44:55.923Z,33.19
2018-07-20T12:47:24.371Z,33.05
2018-07-20T12:49:53.969Z,33.09
2018-07-20T12:52:22.723Z,33.27
2018-07-20T12:54:50.774Z,33.10
2018-07-20T12:57:19.691Z,33.32
2018-07-20T12:59:47.941Z,33.64
2018-07-20T13:02:16.058Z,34.00
2018-07-20T13:04:44.216Z,33.92
2018-07-20T13:07:12.269Z,34.23
2018-07-20T13:09:41.064Z,34.55
2018-07-20T13:12:09.742Z,34.56
2018-07-20T13:14:37.823Z,34.94
2018-07-20T13:17:07.717Z,34.87
2018-07-20T13:19:36.244Z,34.85
2018-07-20T13:22:04.804Z,35.04
2018-07-20T13:24:33.728Z,35.18
2018-07-20T13:27:02.023Z,35.11
2018-07-20T13:29:31.955Z,34.85
2018-07-20T13:32:00.644Z,34.88
2018-07-20T13:34:29.726Z,34.93
2018-07-20T13:36:58.058Z,34.69
2018-07-20T13:39:26.363Z,34.71
2018-07-20T13:41:54.717Z,34.88
2018-07-20T13:44:23.070Z,34.85
2018-07-20T13:46:51.142Z,34.76
2018-07-20T13:49:19.906Z,34.59
2018-07-20T13:51:47.935Z,34.27
2018-07-20T13:54:17.531Z,34.28
2018-07-20T13:56:46.187Z,34.41
2018-07-20T13:59:14.226Z,34.69
2018-07-20T14:01:43.136Z,35.12
2018-07-20T14:04:11.393Z,35.19
2018-07-20T14:06:39.661Z,34.87
2018-07-20T14:09:09.963Z,34.14
2018-07-20T14:11:38.499Z,35.13
2018-07-20T14:14:07.397Z,34.94
2018-07-20T14:16:36.237Z,34.63
2018-07-20T14:19:04.483Z,34.59
2018-07-20T14:21:34.445Z,34.66
2018-07-20T14:24:04.601Z,34.68
2018-07-20T14:26:33.390Z,34.41
2018-07-20T14:29:01.718Z,34.37
2018-07-20T14:31:30.283Z,34.50
2018-07-20T14:33:59.106Z,34.33
2018-07-20T14:36:27.933Z,34.18
2018-07-20T14:38:57.717Z,33.98
2018-07-20T14:41:26.424Z,34.00
2018-07-20T14:43:59.171Z,34.03
2018-07-20T14:46:27.264Z,34.04
2018-07-20T14:48:55.316Z,34.02
2018-07-20T14:51:26.860Z,34.00
2018-07-20T14:53:58.194Z,33.77
2018-07-20T14:56:27.232Z,33.82
2018-07-20T14:58:56.106Z,33.72
2018-07-20T15:01:25.072Z,33.47
2018-07-20T15:03:54.217Z,33.38
2018-07-20T15:06:23.277Z,33.06
2018-07-20T15:08:51.393Z,32.91
2018-07-20T15:11:23.700Z,32.77
2018-07-20T15:13:55.013Z,32.84
2018-07-20T15:16:24.678Z,32.98
2018-07-20T15:18:55.140Z,33.10
2018-07-20T15:21:24.194Z,33.20
2018-07-20T15:23:57.498Z,33.10
2018-07-20T15:26:27.948Z,32.86
2018-07-20T15:28:59.231Z,32.60
2018-07-20T15:31:28.470Z,32.55
2018-07-20T15:33:56.840Z,32.53
2018-07-20T15:36:25.822Z,32.58
2018-07-20T15:38:54.391Z,32.48
2018-07-20T15:41:22.862Z,32.89
2018-07-20T15:43:51.460Z,33.00
2018-07-20T15:46:20.022Z,33.02
2018-07-20T15:48:48.319Z,32.90
2018-07-20T15:51:17.246Z,32.83
2018-07-20T15:53:45.820Z,32.55
2018-07-20T15:56:15.260Z,32.58
2018-07-20T15:58:43.980Z,32.34
2018-07-20T16:01:15.180Z,32.37
2018-07-20T16:03:43.784Z,32.33
2018-07-20T16:06:13.092Z,32.18
2018-07-20T16:08:41.430Z,32.05
2018-07-20T16:11:12.090Z,31.93
2018-07-20T16:13:41.274Z,31.94
2018-07-20T16:16:09.590Z,32.01
2018-07-20T16:18:37.860Z,32.01
2018-07-20T16:21:06.143Z,31.94
2018-07-20T16:23:35.131Z,31.89
2018-07-20T16:26:06.203Z,31.79
2018-07-20T16:28:35.045Z,31.37
2018-07-20T16:31:03.194Z,31.66
2018-07-20T16:33:32.409Z,31.62
2018-07-20T16:36:00.559Z,31.47
2018-07-20T16:38:29.083Z,31.49
2018-07-20T16:40:58.742Z,31.47
2018-07-20T16:43:28.013Z,31.46
2018-07-20T16:45:56.541Z,31.48
2018-07-20T16:48:25.881Z,31.55
2018-07-20T16:52:18.983Z,31.59
2018-07-20T16:54:47.096Z,31.66
2018-07-20T16:57:15.289Z,31.63
2018-07-20T16:59:43.767Z,31.57
2018-07-20T17:02:12.140Z,31.63
2018-07-20T17:04:41.193Z,31.55
2018-07-20T17:07:11.880Z,31.67
2018-07-20T17:09:40.767Z,31.51
2018-07-20T17:12:09.408Z,31.39
2018-07-20T17:14:41.787Z,31.39
2018-07-20T17:17:16.244Z,31.30
2018-07-20T17:19:44.979Z,31.17
2018-07-20T17:22:14.728Z,31.35
2018-07-20T17:24:47.085Z,31.24
2018-07-20T17:27:19.708Z,31.34
2018-07-20T17:29:47.955Z,31.27
2018-07-20T17:32:16.329Z,31.27
2018-07-20T17:34:46.716Z,31.33
2018-07-20T17:37:16.385Z,31.45
2018-07-20T17:39:44.624Z,31.59
2018-07-20T17:42:13.532Z,31.70
2018-07-20T17:44:41.620Z,31.81
2018-07-20T17:47:09.825Z,31.87
2018-07-20T17:49:37.928Z,32.01
2018-07-20T17:52:06.052Z,32.02
2018-07-20T17:54:34.571Z,32.00
2018-07-20T17:57:02.670Z,31.96
2018-07-20T17:59:30.815Z,31.82
2018-07-20T18:01:59.087Z,31.72
2018-07-20T18:04:27.294Z,31.67
2018-07-20T18:06:56.070Z,31.66
2018-07-20T18:09:24.188Z,31.58
2018-07-20T18:11:52.262Z,31.64
2018-07-20T18:14:20.717Z,31.58
2018-07-20T18:16:49.763Z,31.41
2018-07-20T18:19:17.918Z,31.43
2018-07-20T18:21:46.469Z,31.43
2018-07-20T18:24:14.618Z,31.36
2018-07-20T18:26:43.396Z,31.21
2018-07-20T18:29:12.009Z,30.94
2018-07-20T18:31:40.278Z,30.95
2018-07-20T18:34:08.756Z,30.77
2018-07-20T18:36:37.071Z,30.59
2018-07-20T18:39:09.101Z,30.42
2018-07-20T18:41:37.911Z,30.25
2018-07-20T18:44:06.147Z,30.09
2018-07-20T18:46:34.711Z,29.95
2018-07-20T18:49:03.824Z,29.81
2018-07-20T18:51:32.040Z,29.68
2018-07-20T18:54:00.136Z,29.52
2018-07-20T18:56:34.880Z,29.38
2018-07-20T18:59:04.325Z,29.25
2018-07-20T19:01:35.996Z,29.13
2018-07-20T19:04:04.567Z,29.03
2018-07-20T19:06:34.130Z,28.92
2018-07-20T19:09:03.322Z,28.81
2018-07-20T19:11:34.948Z,28.70
2018-07-20T19:14:04.158Z,28.58
2018-07-20T19:16:35.826Z,28.47
2018-07-20T19:19:05.921Z,28.36
2018-07-20T19:21:39.364Z,28.09
2018-07-20T19:24:07.890Z,28.04
2018-07-20T19:26:43.395Z,27.89
2018-07-20T19:29:11.978Z,27.79
2018-07-20T19:31:46.201Z,27.71
2018-07-20T19:34:21.527Z,27.60
2018-07-20T19:36:53.572Z,27.48
2018-07-20T19:39:24.754Z,27.36
2018-07-20T19:41:54.125Z,27.24
2018-07-20T19:44:24.289Z,27.16
2018-07-20T19:46:55.136Z,27.08
2018-07-20T19:49:23.585Z,26.97
2018-07-20T19:51:52.575Z,26.89
2018-07-20T19:54:21.633Z,26.82
2018-07-20T19:56:50.920Z,26.76
2018-07-20T19:59:19.567Z,26.68
2018-07-20T20:01:48.134Z,26.59
2018-07-20T20:04:16.626Z,26.47
2018-07-20T20:06:45.202Z,26.47
2018-07-20T20:09:13.775Z,26.40
2018-07-20T20:11:42.052Z,26.32
2018-07-20T20:14:10.437Z,26.24
2018-07-20T20:16:38.849Z,26.11
2018-07-20T20:19:07.579Z,25.84
2018-07-20T20:21:37.098Z,25.87
2018-07-20T20:24:06.420Z,25.76
2018-07-20T20:26:35.220Z,25.66
2018-07-20T20:29:03.388Z,25.60
2018-07-20T20:31:32.077Z,25.54
2018-07-20T20:34:00.542Z,25.44
2018-07-20T20:36:28.844Z,25.36
2018-07-20T20:39:00.171Z,25.29
2018-07-20T20:41:30.466Z,25.22
2018-07-20T20:44:01.365Z,25.12
2018-07-20T20:46:30.616Z,25.01
2018-07-20T20:48:59.631Z,24.90
2018-07-20T20:51:28.314Z,24.78
2018-07-20T20:53:56.486Z,24.71
2018-07-20T20:56:25.066Z,24.55
2018-07-20T20:58:54.709Z,24.53
2018-07-20T21:01:23.436Z,24.41
2018-07-20T21:03:53.108Z,24.32
2018-07-20T21:06:26.044Z,24.24
2018-07-20T21:08:54.692Z,24.18
2018-07-20T21:11:23.480Z,24.11
2018-07-20T21:13:52.960Z,24.07
2018-07-20T21:16:21.512Z,24.02
2018-07-20T21:18:51.459Z,23.98
2018-07-20T21:21:19.607Z,23.94
2018-07-20T21:23:48.383Z,23.87
2018-07-20T21:26:17.638Z,23.83
2018-07-20T21:28:47.152Z,23.83
2018-07-20T21:31:15.936Z,23.82
2018-07-20T21:33:46.017Z,23.82
2018-07-20T21:36:15.145Z,23.64
2018-07-20T21:38:43.695Z,23.74
2018-07-20T21:41:11.729Z,23.66
2018-07-20T21:43:39.866Z,23.59
2018-07-20T21:46:08.543Z,23.49
2018-07-20T21:48:36.889Z,23.38
2018-07-20T21:51:05.376Z,23.28
2018-07-20T21:53:33.606Z,23.18
2018-07-20T21:56:01.728Z,23.05
2018-07-20T21:58:29.753Z,23.05
2018-07-20T22:00:58.001Z,22.99
2018-07-20T22:03:26.688Z,22.93
2018-07-20T22:05:54.820Z,22.87
2018-07-20T22:08:24.200Z,22.78
2018-07-20T22:10:52.517Z,22.69
2018-07-20T22:13:20.966Z,22.66
2018-07-20T22:15:49.696Z,22.66
2018-07-20T22:18:18.019Z,22.68
2018-07-20T22:20:46.713Z,22.67
2018-07-20T22:23:15.785Z,22.65
2018-07-20T22:25:44.267Z,22.61
2018-07-20T22:28:12.487Z,22.57
2018-07-20T22:30:40.854Z,22.53
2018-07-20T22:33:09.048Z,22.48
2018-07-20T22:35:37.534Z,22.34
2018-07-20T22:38:06.037Z,22.37
2018-07-20T22:40:34.304Z,22.31
2018-07-20T22:43:02.687Z,22.24
2018-07-20T22:45:30.817Z,22.20
2018-07-20T22:47:59.428Z,22.14
2018-07-20T22:50:27.667Z,21.69
2018-07-20T22:52:55.700Z,22.04
2018-07-20T22:55:24.263Z,21.98
2018-07-20T22:57:52.327Z,21.90
2018-07-20T23:00:20.611Z,21.79
2018-07-20T23:02:48.739Z,21.72
2018-07-20T23:05:16.779Z,21.67
2018-07-20T23:07:45.464Z,21.60
2018-07-20T23:10:13.786Z,21.54
2018-07-20T23:12:41.912Z,21.51
2018-07-20T23:15:11.022Z,21.47
2018-07-20T23:17:39.099Z,21.18
2018-07-20T23:20:07.713Z,21.41
2018-07-20T23:22:36.041Z,21.39
2018-07-20T23:25:04.255Z,21.36
2018-07-20T23:27:32.743Z,21.33
2018-07-20T23:30:00.768Z,21.28
2018-07-20T23:32:28.874Z,21.01
2018-07-20T23:34:56.891Z,21.19
2018-07-20T23:37:24.927Z,21.16
2018-07-20T23:39:53.511Z,21.12
2018-07-20T23:42:21.575Z,21.08
2018-07-20T23:44:49.771Z,21.05
2018-07-20T23:47:18.302Z,21.02
2018-07-20T23:49:46.464Z,21.02
2018-07-20T23:52:14.944Z,20.98
2018-07-20T23:54:43.134Z,20.93
2018-07-20T23:57:11.618Z,20.89
2018-07-20T23:59:40.183Z,20.85
